Time;durP1;ratioP1;P1;durP2;ratioP2;P2;SDS_P1;SDS_P2;PMS_P1;PMS_P2;Temp;Humidity;BMP_temperature;BMP_pressure;BME280_temperature;BME280_humidity;BME280_pressure;Samples;Min_cycle;Max_cycle;Signal;HPM_P1;HPM_P2
2023/12/03 00:01:59;;;;;;;29.35;14.77;;;0.80;99.90;;;;;;7347954;32;20094;-57
2023/12/03 00:06:01;;;;;;;29.02;15.02;;;0.80;99.90;;;;;;7356067;32;20103;-57
2023/12/03 00:10:04;;;;;;;29.37;14.55;;;0.80;99.90;;;;;;7351143;32;20163;-56
2023/12/03 00:14:06;;;;;;;29.27;14.70;;;0.80;99.90;;;;;;7355736;32;20177;-57
2023/12/03 00:18:08;;;;;;;31.15;14.48;;;0.90;99.90;;;;;;7345212;32;20126;-57
2023/12/03 00:22:10;;;;;;;27.50;14.13;;;0.80;99.90;;;;;;7350813;32;20626;-56
2023/12/03 00:26:12;;;;;;;30.90;14.98;;;0.80;99.90;;;;;;7335374;32;20532;-57
2023/12/03 00:30:14;;;;;;;30.02;14.40;;;0.80;99.90;;;;;;7354217;32;20162;-57
2023/12/03 00:34:16;;;;;;;34.20;14.90;;;0.80;99.90;;;;;;7353380;32;20183;-58
2023/12/03 00:38:18;;;;;;;30.25;14.75;;;0.80;99.90;;;;;;7353925;32;20182;-56
2023/12/03 00:42:19;;;;;;;30.40;15.70;;;0.80;99.90;;;;;;7348241;32;20900;-56
2023/12/03 00:46:22;;;;;;;31.60;16.00;;;0.90;99.90;;;;;;7352108;32;20165;-57
2023/12/03 00:50:24;;;;;;;31.55;15.85;;;0.90;99.90;;;;;;7351223;32;20601;-57
2023/12/03 00:54:26;;;;;;;35.88;16.20;;;0.90;99.90;;;;;;7348157;32;20439;-58
2023/12/03 00:58:28;;;;;;;35.33;17.15;;;0.90;99.90;;;;;;7352484;32;20129;-58
2023/12/03 01:02:30;;;;;;;30.30;15.32;;;0.90;99.90;;;;;;7351774;32;20259;-56
2023/12/03 01:06:31;;;;;;;34.15;16.75;;;0.90;99.90;;;;;;7353287;32;20685;-56
2023/12/03 01:10:33;;;;;;;34.25;17.25;;;0.90;99.90;;;;;;7350897;32;20121;-57
2023/12/03 01:14:35;;;;;;;35.08;16.20;;;0.90;99.90;;;;;;7349034;32;20882;-57
2023/12/03 01:18:37;;;;;;;33.53;16.48;;;0.90;99.90;;;;;;7354985;32;20110;-57
2023/12/03 01:22:38;;;;;;;42.22;17.60;;;0.90;99.90;;;;;;7347709;32;20202;-57
2023/12/03 01:26:40;;;;;;;33.95;17.08;;;0.80;99.90;;;;;;7350732;32;20333;-57
2023/12/03 01:30:42;;;;;;;33.80;16.45;;;0.90;99.90;;;;;;7351183;32;20333;-56
2023/12/03 01:34:44;;;;;;;36.60;17.92;;;0.90;99.90;;;;;;7352827;32;20094;-56
2023/12/03 01:38:46;;;;;;;36.10;16.65;;;1.00;99.90;;;;;;7350309;32;20250;-56
2023/12/03 01:42:47;;;;;;;38.15;18.15;;;1.00;99.90;;;;;;7352589;32;20103;-56
2023/12/03 01:46:50;;;;;;;35.50;17.05;;;1.00;99.90;;;;;;7335876;32;20223;-55
2023/12/03 01:50:52;;;;;;;34.42;16.65;;;1.00;99.90;;;;;;7352328;32;20106;-56
2023/12/03 01:54:54;;;;;;;31.67;16.27;;;1.10;99.90;;;;;;7350818;32;20223;-56
2023/12/03 01:58:57;;;;;;;34.75;17.60;;;1.10;99.90;;;;;;7349199;32;20172;-57
2023/12/03 02:02:58;;;;;;;38.05;17.95;;;1.10;99.90;;;;;;7353487;32;20160;-57
2023/12/03 02:07:00;;;;;;;40.72;17.60;;;1.10;99.90;;;;;;7345633;32;20189;-55
2023/12/03 02:11:06;;;;;;;37.63;18.27;;;1.20;99.90;;;;;;7352984;32;20323;-56
2023/12/03 02:15:08;;;;;;;42.58;18.60;;;1.30;99.90;;;;;;7335392;32;20100;-57
2023/12/03 02:19:10;;;;;;;36.53;18.08;;;1.20;99.90;;;;;;7345214;32;20198;-56
2023/12/03 02:23:14;;;;;;;38.47;17.50;;;1.20;99.90;;;;;;7346839;32;20613;-57
2023/12/03 02:27:16;;;;;;;34.17;15.73;;;1.20;99.90;;;;;;7344561;32;20129;-56
2023/12/03 02:31:18;;;;;;;34.78;17.58;;;1.20;99.90;;;;;;7346633;32;20452;-57
2023/12/03 02:35:20;;;;;;;37.28;18.52;;;1.20;99.90;;;;;;7348981;32;20141;-56
2023/12/03 02:39:21;;;;;;;33.67;17.80;;;1.30;99.90;;;;;;7352795;32;20130;-56
2023/12/03 02:43:23;;;;;;;33.42;16.95;;;1.20;99.90;;;;;;7346106;32;20169;-56
2023/12/03 02:47:25;;;;;;;38.30;18.02;;;1.10;99.90;;;;;;7349291;32;20534;-57
2023/12/03 02:51:26;;;;;;;35.65;17.65;;;1.20;99.90;;;;;;7351098;32;20099;-57
2023/12/03 02:55:28;;;;;;;35.88;18.00;;;1.20;99.90;;;;;;7351726;32;20103;-56
2023/12/03 02:59:30;;;;;;;35.78;16.67;;;1.20;99.90;;;;;;7350179;32;20319;-56
2023/12/03 03:03:32;;;;;;;32.95;17.30;;;1.20;99.90;;;;;;7350189;32;20640;-58
2023/12/03 03:07:34;;;;;;;36.72;17.15;;;1.30;99.90;;;;;;7350398;32;20597;-58
2023/12/03 03:11:36;;;;;;;33.55;17.05;;;1.20;99.90;;;;;;7351535;32;20121;-57
2023/12/03 03:15:37;;;;;;;34.13;17.40;;;1.20;99.90;;;;;;7351289;32;20723;-56
2023/12/03 03:19:43;;;;;;;35.40;16.90;;;1.30;99.90;;;;;;7351207;32;20148;-57
2023/12/03 03:23:44;;;;;;;34.88;16.52;;;1.30;99.90;;;;;;7346888;32;20179;-56
2023/12/03 03:27:46;;;;;;;31.85;15.57;;;1.30;99.90;;;;;;7349951;32;20190;-57
2023/12/03 03:31:50;;;;;;;31.25;14.48;;;1.30;99.90;;;;;;7345650;32;20236;-56
2023/12/03 03:35:52;;;;;;;30.58;15.48;;;1.40;99.90;;;;;;7345105;32;20355;-56
2023/12/03 03:39:54;;;;;;;30.95;15.55;;;1.30;99.90;;;;;;7355595;32;20180;-57
2023/12/03 03:43:55;;;;;;;28.17;13.18;;;1.30;99.90;;;;;;7349863;32;20440;-58
2023/12/03 03:47:57;;;;;;;27.95;14.73;;;1.20;99.90;;;;;;7354617;32;20111;-57
2023/12/03 03:52:01;;;;;;;30.12;13.57;;;1.20;99.90;;;;;;7352616;32;20115;-56
2023/12/03 03:56:08;;;;;;;31.62;15.07;;;1.30;99.90;;;;;;7355432;32;20769;-58
2023/12/03 04:00:11;;;;;;;27.87;11.88;;;1.30;99.90;;;;;;7344976;32;20102;-56
2023/12/03 04:04:13;;;;;;;32.13;14.02;;;1.30;99.90;;;;;;7355718;32;20225;-57
2023/12/03 04:08:15;;;;;;;28.40;13.23;;;1.30;99.90;;;;;;7355492;32;20118;-56
2023/12/03 04:12:16;;;;;;;21.30;10.15;;;1.30;99.90;;;;;;7355537;32;20151;-57
2023/12/03 04:16:22;;;;;;;27.83;13.70;;;1.20;99.90;;;;;;7350916;32;20553;-57
2023/12/03 04:20:23;;;;;;;26.27;13.10;;;1.10;99.90;;;;;;7351737;32;20098;-58
2023/12/03 04:24:25;;;;;;;27.67;12.68;;;1.10;99.90;;;;;;7350995;32;20331;-57
2023/12/03 04:28:27;;;;;;;24.55;13.55;;;1.20;99.90;;;;;;7350879;32;20121;-57
2023/12/03 04:32:29;;;;;;;25.92;13.32;;;1.20;99.90;;;;;;7354249;32;20125;-56
2023/12/03 04:36:31;;;;;;;26.70;12.93;;;1.20;99.90;;;;;;7350006;32;20206;-55
2023/12/03 04:40:33;;;;;;;26.02;12.63;;;1.20;99.90;;;;;;7350885;32;20461;-58
2023/12/03 04:44:35;;;;;;;25.27;12.40;;;1.20;99.90;;;;;;7354522;32;20178;-58
2023/12/03 04:48:40;;;;;;;23.30;12.55;;;1.20;99.90;;;;;;7353063;32;20165;-57
2023/12/03 04:52:42;;;;;;;23.55;12.30;;;1.10;99.90;;;;;;7353724;32;20512;-56
2023/12/03 04:56:43;;;;;;;23.58;12.10;;;1.00;99.90;;;;;;7349327;32;20182;-57
2023/12/03 05:00:45;;;;;;;23.65;11.80;;;1.10;99.90;;;;;;7352726;32;20158;-57
2023/12/03 05:04:47;;;;;;;23.20;12.13;;;1.10;99.90;;;;;;7349833;32;20246;-56
2023/12/03 05:08:49;;;;;;;21.83;11.90;;;1.10;99.90;;;;;;7348970;32;20118;-56
2023/12/03 05:12:50;;;;;;;23.52;11.52;;;1.10;99.90;;;;;;7349875;32;20589;-56
2023/12/03 05:16:52;;;;;;;22.73;12.35;;;1.20;99.90;;;;;;7349814;32;20091;-56
2023/12/03 05:20:54;;;;;;;22.02;11.80;;;1.20;99.90;;;;;;7352661;32;20119;-56
2023/12/03 05:24:56;;;;;;;22.48;10.70;;;1.20;99.90;;;;;;7352045;32;20392;-56
2023/12/03 05:28:58;;;;;;;21.35;10.98;;;1.20;99.90;;;;;;7351850;32;20220;-57
2023/12/03 05:33:00;;;;;;;23.25;11.98;;;1.20;99.90;;;;;;7348751;32;20111;-57
2023/12/03 05:37:02;;;;;;;21.92;10.95;;;1.20;99.90;;;;;;7354886;32;20123;-56
2023/12/03 05:41:04;;;;;;;21.70;11.00;;;1.20;99.90;;;;;;7352655;32;20585;-56
2023/12/03 05:45:06;;;;;;;19.23;9.45;;;1.10;99.90;;;;;;7354647;32;20251;-57
2023/12/03 05:49:09;;;;;;;20.60;11.15;;;1.20;99.90;;;;;;7352172;32;20104;-57
2023/12/03 05:53:11;;;;;;;20.92;10.77;;;1.20;99.90;;;;;;7348701;32;20183;-56
2023/12/03 05:57:12;;;;;;;20.83;10.93;;;1.20;99.90;;;;;;7343765;32;20223;-57
2023/12/03 06:01:22;;;;;;;21.50;10.95;;;1.10;99.90;;;;;;7349334;32;20166;-56
2023/12/03 06:05:23;;;;;;;22.13;10.73;;;1.20;99.90;;;;;;7347131;32;20103;-58
2023/12/03 06:09:25;;;;;;;17.12;9.50;;;1.20;99.90;;;;;;7346335;32;20175;-57
2023/12/03 06:13:27;;;;;;;20.20;10.60;;;1.20;99.90;;;;;;7351117;32;20153;-56
2023/12/03 06:17:30;;;;;;;19.42;10.18;;;1.10;99.90;;;;;;7346887;32;20111;-56
2023/12/03 06:21:32;;;;;;;19.02;9.90;;;1.10;99.90;;;;;;7347959;32;20560;-56
2023/12/03 06:25:33;;;;;;;18.67;10.05;;;1.10;99.90;;;;;;7348495;32;20355;-57
2023/12/03 06:29:35;;;;;;;16.55;8.90;;;1.10;99.90;;;;;;7342425;32;20595;-57
2023/12/03 06:33:37;;;;;;;18.30;9.93;;;1.10;99.90;;;;;;7351116;32;20569;-56
2023/12/03 06:37:39;;;;;;;19.55;9.55;;;1.10;99.90;;;;;;7338130;32;20290;-56
2023/12/03 06:41:40;;;;;;;22.83;10.02;;;1.00;99.90;;;;;;7347184;32;20214;-56
2023/12/03 06:45:42;;;;;;;17.02;9.68;;;1.00;99.90;;;;;;7351545;32;20155;-55
2023/12/03 06:49:44;;;;;;;21.00;10.50;;;1.00;99.90;;;;;;7345670;32;22043;-56
2023/12/03 06:53:46;;;;;;;17.10;9.18;;;1.00;99.90;;;;;;7344758;32;20154;-57
2023/12/03 06:57:47;;;;;;;17.30;9.80;;;1.10;99.90;;;;;;7343550;32;20295;-57
2023/12/03 07:01:49;;;;;;;17.05;9.48;;;1.10;99.90;;;;;;7336780;32;20287;-56
2023/12/03 07:05:51;;;;;;;17.02;8.98;;;1.20;99.90;;;;;;7346160;32;20233;-56
2023/12/03 07:09:53;;;;;;;15.75;8.52;;;1.10;99.90;;;;;;7349750;32;20265;-56
2023/12/03 07:13:54;;;;;;;18.15;8.63;;;1.10;99.90;;;;;;7356794;32;20103;-56
2023/12/03 07:17:57;;;;;;;16.37;8.15;;;1.10;99.90;;;;;;7352041;32;20109;-56
2023/12/03 07:21:59;;;;;;;16.45;8.90;;;1.00;99.90;;;;;;7349060;32;20125;-56
2023/12/03 07:26:00;;;;;;;13.85;8.13;;;1.00;99.90;;;;;;7349610;32;20190;-54
2023/12/03 07:30:03;;;;;;;17.08;8.27;;;1.00;99.90;;;;;;7344602;32;20225;-56
2023/12/03 07:34:04;;;;;;;14.82;7.87;;;0.90;99.90;;;;;;7352213;32;20457;-57
2023/12/03 07:38:06;;;;;;;18.08;8.45;;;0.80;99.90;;;;;;7352009;32;20279;-56
2023/12/03 07:42:08;;;;;;;17.02;9.55;;;0.90;99.90;;;;;;7354829;32;20178;-57
2023/12/03 07:46:16;;;;;;;16.12;9.23;;;0.90;99.90;;;;;;7353053;32;20216;-56
2023/12/03 07:50:18;;;;;;;15.73;8.18;;;0.80;99.90;;;;;;7351705;32;20313;-56
2023/12/03 07:54:19;;;;;;;17.02;8.63;;;0.90;99.90;;;;;;7355696;32;20622;-57
2023/12/03 07:58:21;;;;;;;20.65;9.40;;;0.90;99.90;;;;;;7351320;32;20706;-57
2023/12/03 08:02:23;;;;;;;16.48;8.93;;;0.90;99.90;;;;;;7349143;32;20217;-58
2023/12/03 08:06:25;;;;;;;19.15;8.75;;;0.80;99.90;;;;;;7354743;32;20517;-56
2023/12/03 08:10:27;;;;;;;16.10;8.98;;;0.80;99.90;;;;;;7353432;32;20114;-57
2023/12/03 08:14:29;;;;;;;18.67;8.90;;;0.90;99.90;;;;;;7354798;32;20178;-57
2023/12/03 08:18:31;;;;;;;15.73;8.88;;;1.00;99.90;;;;;;7352194;32;20193;-57
2023/12/03 08:22:33;;;;;;;17.73;8.93;;;1.00;99.90;;;;;;7352612;32;20111;-56
2023/12/03 08:26:35;;;;;;;17.52;8.73;;;0.90;99.90;;;;;;7347789;32;20167;-57
2023/12/03 08:30:38;;;;;;;17.92;9.70;;;0.70;99.90;;;;;;7348845;32;20178;-56
2023/12/03 08:34:40;;;;;;;16.27;8.85;;;0.60;99.90;;;;;;7345617;32;20129;-56
2023/12/03 08:38:42;;;;;;;19.52;9.40;;;0.60;99.90;;;;;;7355229;32;20217;-57
2023/12/03 08:42:44;;;;;;;17.58;9.38;;;0.60;99.90;;;;;;7353647;32;20127;-58
2023/12/03 08:46:46;;;;;;;16.92;9.27;;;0.60;99.90;;;;;;7351105;32;20130;-57
2023/12/03 08:50:48;;;;;;;19.25;9.27;;;0.70;99.90;;;;;;7350532;32;20182;-57
2023/12/03 08:54:50;;;;;;;21.05;10.18;;;0.70;99.90;;;;;;7350030;32;20241;-57
2023/12/03 08:58:51;;;;;;;19.50;8.50;;;0.70;99.90;;;;;;7353141;32;20589;-57
2023/12/03 09:02:53;;;;;;;17.02;8.25;;;0.70;99.90;;;;;;7341802;32;20631;-56
2023/12/03 09:06:55;;;;;;;15.77;8.15;;;0.80;99.90;;;;;;7347390;32;20268;-55
2023/12/03 09:10:57;;;;;;;16.80;8.23;;;0.80;99.90;;;;;;7350674;32;20202;-57
2023/12/03 09:14:59;;;;;;;17.40;8.20;;;0.80;99.90;;;;;;7353840;32;20156;-56
2023/12/03 09:19:01;;;;;;;20.42;10.38;;;0.90;99.90;;;;;;7348452;32;20122;-57
2023/12/03 09:23:03;;;;;;;18.10;8.95;;;0.80;99.90;;;;;;7350954;32;20152;-56
2023/12/03 09:27:05;;;;;;;19.40;9.05;;;0.90;99.90;;;;;;7345885;32;20223;-56
2023/12/03 09:31:06;;;;;;;17.42;9.20;;;1.00;99.90;;;;;;7342151;32;20186;-56
2023/12/03 09:35:08;;;;;;;17.75;9.32;;;0.90;99.90;;;;;;7351549;32;20312;-57
2023/12/03 09:39:10;;;;;;;18.05;9.32;;;1.00;99.90;;;;;;7348444;32;20107;-57
2023/12/03 09:43:16;;;;;;;22.52;9.60;;;1.20;99.90;;;;;;7344093;32;20190;-56
2023/12/03 09:47:22;;;;;;;20.35;9.70;;;1.30;99.90;;;;;;7343741;32;20191;-56
2023/12/03 09:51:24;;;;;;;17.48;9.10;;;1.30;99.90;;;;;;7348019;32;20107;-57
2023/12/03 09:55:27;;;;;;;23.02;9.93;;;1.40;99.90;;;;;;7346760;32;20107;-57
2023/12/03 09:59:33;;;;;;;16.80;9.23;;;1.50;99.90;;;;;;7349972;32;20177;-56
2023/12/03 10:03:35;;;;;;;20.10;9.65;;;1.60;99.90;;;;;;7346699;32;20868;-57
2023/12/03 10:07:38;;;;;;;14.73;7.90;;;1.70;99.90;;;;;;7351788;32;20125;-58
2023/12/03 10:11:43;;;;;;;20.62;9.40;;;1.90;99.90;;;;;;7347476;32;20233;-57
2023/12/03 10:15:45;;;;;;;19.48;9.95;;;2.00;99.90;;;;;;7350094;32;20115;-57
2023/12/03 10:19:46;;;;;;;19.73;9.13;;;2.20;99.90;;;;;;7353106;32;20122;-57
2023/12/03 10:24:00;;;;;;;19.12;9.80;;;2.10;99.90;;;;;;7348453;32;20095;-58
2023/12/03 10:28:04;;;;;;;17.27;8.63;;;2.20;99.90;;;;;;7349642;32;20269;-58
2023/12/03 10:32:08;;;;;;;19.20;9.43;;;2.10;99.90;;;;;;7347326;32;20112;-58
2023/12/03 10:36:10;;;;;;;20.85;9.27;;;2.10;99.90;;;;;;7344413;32;20575;-57
2023/12/03 10:40:12;;;;;;;19.98;9.30;;;2.20;99.90;;;;;;7351099;32;20213;-57
2023/12/03 10:44:24;;;;;;;19.45;8.95;;;2.20;99.90;;;;;;7350353;32;20159;-58
2023/12/03 10:48:30;;;;;;;19.60;9.65;;;2.10;99.90;;;;;;7350861;32;20225;-59
2023/12/03 10:52:35;;;;;;;18.77;9.27;;;2.30;99.90;;;;;;7345153;32;20190;-58
2023/12/03 10:56:37;;;;;;;20.75;9.40;;;2.40;99.90;;;;;;7335709;32;20171;-58
2023/12/03 11:00:40;;;;;;;16.73;8.50;;;2.40;99.90;;;;;;7349849;32;20303;-59
2023/12/03 11:05:10;;;;;;;19.85;8.80;;;2.30;99.90;;;;;;7350604;32;20103;-58
2023/12/03 11:09:12;;;;;;;21.12;9.82;;;2.40;99.90;;;;;;7349768;32;20209;-58
2023/12/03 11:13:16;;;;;;;21.12;9.65;;;2.40;99.90;;;;;;7347262;32;20126;-59
2023/12/03 11:17:30;;;;;;;18.23;9.63;;;2.70;99.90;;;;;;7347425;32;20247;-59
2023/12/03 11:21:55;;;;;;;22.27;9.30;;;2.90;99.90;;;;;;7348635;32;20099;-59
2023/12/03 11:26:03;;;;;;;18.33;8.82;;;3.00;99.90;;;;;;7351644;32;20155;-58
2023/12/03 11:30:05;;;;;;;17.80;8.98;;;3.10;99.90;;;;;;7350268;32;20271;-59
2023/12/03 11:34:09;;;;;;;17.00;8.75;;;3.10;99.90;;;;;;7348084;32;20510;-59
2023/12/03 11:38:25;;;;;;;17.58;9.57;;;3.10;99.90;;;;;;7344646;32;20243;-55
2023/12/03 11:42:28;;;;;;;16.12;8.77;;;3.30;99.90;;;;;;7348679;32;20192;-57
2023/12/03 11:46:30;;;;;;;18.17;8.80;;;3.40;99.90;;;;;;7349817;32;20535;-57
2023/12/03 11:50:38;;;;;;;17.65;9.10;;;3.20;99.90;;;;;;7345173;32;20205;-58
2023/12/03 11:54:42;;;;;;;15.43;8.98;;;3.10;99.90;;;;;;7348543;32;20134;-58
2023/12/03 11:58:44;;;;;;;21.17;9.35;;;3.00;99.90;;;;;;7348039;32;20794;-57
2023/12/03 12:02:45;;;;;;;21.83;9.93;;;2.80;99.90;;;;;;7352404;32;20618;-58
2023/12/03 12:06:48;;;;;;;21.00;10.15;;;2.70;99.90;;;;;;7350498;32;20100;-58
2023/12/03 12:10:52;;;;;;;19.12;9.30;;;2.50;99.90;;;;;;7352406;32;20099;-59
2023/12/03 12:14:55;;;;;;;19.05;9.45;;;2.30;99.90;;;;;;7351407;32;20092;-58
2023/12/03 12:18:57;;;;;;;18.73;9.45;;;2.30;99.90;;;;;;7353307;32;20239;-58
2023/12/03 12:22:59;;;;;;;21.67;10.20;;;2.20;99.90;;;;;;7352413;32;20261;-58
2023/12/03 12:27:01;;;;;;;19.70;10.20;;;2.20;99.90;;;;;;7348673;32;20164;-57
2023/12/03 12:31:03;;;;;;;19.87;10.27;;;2.10;99.90;;;;;;7349864;32;20249;-57
2023/12/03 12:35:05;;;;;;;21.30;9.07;;;1.90;99.90;;;;;;7353298;32;20103;-59
2023/12/03 12:39:07;;;;;;;24.00;10.50;;;1.80;99.90;;;;;;7347791;32;20159;-58
2023/12/03 12:43:10;;;;;;;20.48;10.55;;;1.70;99.90;;;;;;7353180;32;20213;-58
2023/12/03 12:47:12;;;;;;;20.25;10.50;;;1.70;99.90;;;;;;7356744;32;20189;-58
2023/12/03 12:51:24;;;;;;;17.83;10.30;;;1.80;99.90;;;;;;7345602;32;20711;-59
2023/12/03 12:55:30;;;;;;;18.02;9.52;;;1.80;99.90;;;;;;7351126;32;20111;-57
2023/12/03 12:59:32;;;;;;;22.17;10.30;;;1.80;99.90;;;;;;7351402;32;20498;-58
2023/12/03 13:03:33;;;;;;;19.85;9.65;;;1.90;99.90;;;;;;7351730;32;20132;-58
2023/12/03 13:07:35;;;;;;;18.58;10.10;;;1.90;99.90;;;;;;7354142;32;20095;-58
2023/12/03 13:11:37;;;;;;;19.12;9.90;;;2.00;99.90;;;;;;7354220;32;20182;-60
2023/12/03 13:15:40;;;;;;;21.17;10.10;;;2.20;99.90;;;;;;7345661;32;20207;-55
2023/12/03 13:19:42;;;;;;;20.92;10.25;;;2.10;99.90;;;;;;7349972;32;20323;-57
2023/12/03 13:23:44;;;;;;;23.17;9.85;;;2.20;99.90;;;;;;7350796;32;20182;-56
2023/12/03 13:27:46;;;;;;;21.65;10.02;;;2.30;99.90;;;;;;7351368;32;20198;-58
2023/12/03 13:31:48;;;;;;;20.88;10.20;;;2.30;99.90;;;;;;7354804;32;20252;-58
2023/12/03 13:35:51;;;;;;;20.48;10.13;;;2.30;99.90;;;;;;7354179;32;20106;-58
2023/12/03 13:39:54;;;;;;;21.42;10.38;;;2.10;99.90;;;;;;7351713;32;20395;-57
2023/12/03 13:43:56;;;;;;;17.98;9.30;;;2.10;99.90;;;;;;7339177;32;20099;-57
2023/12/03 13:47:57;;;;;;;19.60;9.60;;;2.00;99.90;;;;;;7352675;32;20227;-58
2023/12/03 13:51:59;;;;;;;17.10;9.75;;;2.00;99.90;;;;;;7353160;32;20109;-58
2023/12/03 13:56:03;;;;;;;16.40;9.20;;;1.90;99.90;;;;;;7349305;32;20228;-56
2023/12/03 14:00:06;;;;;;;19.50;8.80;;;1.90;99.90;;;;;;7348934;32;20099;-57
2023/12/03 14:04:08;;;;;;;19.40;9.40;;;1.90;99.90;;;;;;7351940;32;20107;-57
2023/12/03 14:08:10;;;;;;;18.12;9.60;;;1.80;99.90;;;;;;7351725;32;20178;-57
2023/12/03 14:12:12;;;;;;;16.40;8.73;;;1.80;99.90;;;;;;7365392;32;20152;-57
2023/12/03 14:16:14;;;;;;;17.08;8.45;;;1.70;99.90;;;;;;7348125;32;20099;-57
2023/12/03 14:20:16;;;;;;;16.12;8.95;;;1.60;99.90;;;;;;7347984;32;20147;-58
2023/12/03 14:24:18;;;;;;;17.75;9.27;;;1.60;99.90;;;;;;7351595;32;20498;-58
2023/12/03 14:28:20;;;;;;;17.95;8.90;;;1.50;99.90;;;;;;7346226;32;20099;-58
2023/12/03 14:32:22;;;;;;;15.40;8.35;;;1.40;99.90;;;;;;7348828;32;20263;-58
2023/12/03 14:36:25;;;;;;;16.17;8.65;;;1.50;99.90;;;;;;7348028;32;20481;-57
2023/12/03 14:40:27;;;;;;;18.70;9.45;;;1.50;99.90;;;;;;7346715;32;20103;-56
2023/12/03 14:44:30;;;;;;;19.00;9.15;;;1.50;99.90;;;;;;7346933;32;20481;-57
2023/12/03 14:48:32;;;;;;;18.98;9.65;;;1.50;99.90;;;;;;7345091;32;20182;-59
2023/12/03 14:52:34;;;;;;;21.02;9.63;;;1.50;99.90;;;;;;7348107;32;20211;-58
2023/12/03 14:56:36;;;;;;;24.00;11.02;;;1.50;99.90;;;;;;7348768;32;20232;-58
2023/12/03 15:00:38;;;;;;;22.02;10.20;;;1.50;99.90;;;;;;7350030;32;20164;-59
2023/12/03 15:04:40;;;;;;;26.55;10.18;;;1.60;99.90;;;;;;7342602;32;20213;-59
2023/12/03 15:08:44;;;;;;;20.98;10.10;;;1.60;99.90;;;;;;7348514;32;20134;-58
2023/12/03 15:12:46;;;;;;;21.83;10.75;;;1.50;99.90;;;;;;7350233;32;20104;-56
2023/12/03 15:16:48;;;;;;;22.40;10.30;;;1.50;99.90;;;;;;7346395;32;20102;-58
2023/12/03 15:20:52;;;;;;;22.23;10.85;;;1.50;99.90;;;;;;7348148;32;20445;-58
2023/12/03 15:24:53;;;;;;;21.98;10.45;;;1.40;99.90;;;;;;7347780;32;20820;-58
2023/12/03 15:28:55;;;;;;;23.27;11.12;;;1.50;99.90;;;;;;7345516;32;20108;-57
2023/12/03 15:32:57;;;;;;;20.95;10.00;;;1.50;99.90;;;;;;7350072;32;20125;-58
2023/12/03 15:36:59;;;;;;;23.67;11.05;;;1.50;99.90;;;;;;7349178;32;20480;-57
2023/12/03 15:41:01;;;;;;;22.73;11.15;;;1.50;99.90;;;;;;7352241;32;20111;-56
2023/12/03 15:45:03;;;;;;;22.17;11.50;;;1.40;99.90;;;;;;7353107;32;20214;-56
2023/12/03 15:49:05;;;;;;;23.10;11.12;;;1.40;99.90;;;;;;7346610;32;20312;-56
2023/12/03 15:53:19;;;;;;;22.73;11.27;;;1.40;99.90;;;;;;7342867;32;20113;-58
2023/12/03 15:57:21;;;;;;;23.67;11.05;;;1.30;99.90;;;;;;7351223;32;20211;-56
2023/12/03 16:01:22;;;;;;;21.80;11.43;;;1.40;99.90;;;;;;7351170;32;20296;-56
2023/12/03 16:05:24;;;;;;;26.27;11.98;;;1.40;99.90;;;;;;7343807;32;20203;-57
2023/12/03 16:09:26;;;;;;;21.85;11.23;;;1.40;99.90;;;;;;7349673;32;20095;-55
2023/12/03 16:13:30;;;;;;;22.00;11.27;;;1.30;99.90;;;;;;7349985;32;20856;-55
2023/12/03 16:17:33;;;;;;;27.17;12.70;;;1.30;99.90;;;;;;7347116;32;20190;-55
2023/12/03 16:21:37;;;;;;;22.08;11.98;;;1.40;99.90;;;;;;7346742;32;20466;-54
2023/12/03 16:25:38;;;;;;;26.15;11.93;;;1.30;99.90;;;;;;7351821;32;20531;-56
2023/12/03 16:29:40;;;;;;;22.55;11.77;;;1.30;99.90;;;;;;7349279;32;20787;-55
2023/12/03 16:33:42;;;;;;;22.58;11.10;;;1.40;99.90;;;;;;7347742;32;20198;-55
2023/12/03 16:37:43;;;;;;;19.10;10.43;;;1.40;99.90;;;;;;7345381;32;20206;-57
2023/12/03 16:41:45;;;;;;;19.02;10.10;;;1.30;99.90;;;;;;7345965;32;20107;-56
2023/12/03 16:45:47;;;;;;;19.77;9.85;;;1.30;99.90;;;;;;7350677;32;20158;-55
2023/12/03 16:49:49;;;;;;;20.30;10.27;;;1.30;99.90;;;;;;7345066;32;20150;-56
2023/12/03 16:53:51;;;;;;;18.45;9.68;;;1.30;99.90;;;;;;7345859;32;20153;-56
2023/12/03 16:57:53;;;;;;;18.90;9.52;;;1.30;99.90;;;;;;7349941;32;20691;-55
2023/12/03 17:01:55;;;;;;;18.17;8.98;;;1.20;99.90;;;;;;7348147;32;20123;-56
2023/12/03 17:05:56;;;;;;;17.80;9.32;;;1.20;99.90;;;;;;7347449;32;20243;-56
2023/12/03 17:09:58;;;;;;;17.77;9.90;;;1.20;99.90;;;;;;7346923;32;20195;-57
2023/12/03 17:14:00;;;;;;;17.87;9.95;;;1.20;99.90;;;;;;7346894;32;20122;-56
2023/12/03 17:18:02;;;;;;;20.95;9.80;;;1.10;99.90;;;;;;7343853;32;20570;-55
2023/12/03 17:22:04;;;;;;;18.12;9.52;;;1.20;99.90;;;;;;7339087;32;20119;-57
2023/12/03 17:26:06;;;;;;;16.80;9.15;;;1.20;99.90;;;;;;7351606;32;20596;-55
2023/12/03 17:30:08;;;;;;;18.12;9.38;;;1.30;99.90;;;;;;7348456;32;20172;-57
2023/12/03 17:34:11;;;;;;;18.27;9.15;;;1.20;99.90;;;;;;7348719;32;20096;-56
2023/12/03 17:38:13;;;;;;;18.33;8.68;;;1.30;99.90;;;;;;7347068;32;20208;-56
2023/12/03 17:42:15;;;;;;;18.48;9.50;;;1.30;99.90;;;;;;7348125;32;22114;-55
2023/12/03 17:46:17;;;;;;;21.23;10.15;;;1.30;99.90;;;;;;7342966;32;20125;-57
2023/12/03 17:50:19;;;;;;;18.95;9.57;;;1.30;99.90;;;;;;7342602;32;20152;-55
2023/12/03 17:54:20;;;;;;;20.62;10.38;;;1.20;99.90;;;;;;7346277;32;20220;-55
2023/12/03 17:58:22;;;;;;;18.87;9.20;;;1.20;99.90;;;;;;7341430;32;20119;-56
2023/12/03 18:02:24;;;;;;;20.55;10.25;;;1.30;99.90;;;;;;7348020;32;20515;-57
2023/12/03 18:06:26;;;;;;;19.02;10.32;;;1.30;99.90;;;;;;7347837;32;20565;-56
2023/12/03 18:10:27;;;;;;;19.83;10.13;;;1.30;99.90;;;;;;7346388;32;20577;-55
2023/12/03 18:14:29;;;;;;;21.23;11.07;;;1.30;99.90;;;;;;7345096;32;20091;-55
2023/12/03 18:18:31;;;;;;;19.30;9.93;;;1.30;99.90;;;;;;7335275;32;20091;-54
2023/12/03 18:22:35;;;;;;;17.95;9.18;;;1.20;99.90;;;;;;7345185;32;20616;-56
2023/12/03 18:26:38;;;;;;;21.80;11.30;;;1.00;99.90;;;;;;7345967;32;20597;-55
2023/12/03 18:30:40;;;;;;;24.83;12.15;;;1.00;99.90;;;;;;7343860;32;20278;-55
2023/12/03 18:34:42;;;;;;;20.33;11.52;;;0.80;99.90;;;;;;7345675;32;20103;-56
2023/12/03 18:38:47;;;;;;;22.85;10.85;;;0.70;99.90;;;;;;7346111;32;20214;-57
2023/12/03 18:42:51;;;;;;;;;;;0.70;99.90;;;;;;7347942;32;20650;-56
2023/12/03 18:46:52;;;;;;;20.52;11.10;;;0.60;99.90;;;;;;7341698;32;20052;-54
2023/12/03 18:50:54;;;;;;;25.55;12.10;;;0.50;99.90;;;;;;7347622;32;20193;-54
2023/12/03 18:54:56;;;;;;;22.30;11.88;;;0.50;99.90;;;;;;7343699;32;20201;-54
2023/12/03 18:58:58;;;;;;;25.25;11.85;;;0.40;99.90;;;;;;7345919;32;20100;-56
2023/12/03 19:02:59;;;;;;;23.23;11.30;;;0.40;99.90;;;;;;7341781;32;20309;-55
2023/12/03 19:07:01;;;;;;;23.50;12.63;;;0.30;99.90;;;;;;7348521;32;20125;-55
2023/12/03 19:11:06;;;;;;;24.40;13.13;;;0.30;99.90;;;;;;7347496;32;20182;-56
2023/12/03 19:15:09;;;;;;;25.42;12.30;;;0.30;99.90;;;;;;7340785;32;20320;-54
2023/12/03 19:19:10;;;;;;;23.83;12.00;;;0.30;99.90;;;;;;7343751;32;20230;-56
2023/12/03 19:23:12;;;;;;;28.52;13.35;;;0.30;99.90;;;;;;7344026;32;20315;-55
2023/12/03 19:27:14;;;;;;;23.58;11.95;;;0.30;99.90;;;;;;7340155;32;20208;-55
2023/12/03 19:31:16;;;;;;;89.85;43.50;;;0.30;99.90;;;;;;7346588;32;20133;-54
2023/12/03 19:35:18;;;;;;;22.60;11.80;;;0.40;99.90;;;;;;7346971;32;20236;-55
2023/12/03 19:39:20;;;;;;;24.12;12.48;;;0.40;99.90;;;;;;7345838;32;20195;-57
2023/12/03 19:43:22;;;;;;;20.67;10.45;;;0.40;99.90;;;;;;7343982;32;20178;-59
2023/12/03 19:47:25;;;;;;;19.90;9.93;;;0.50;99.90;;;;;;7344377;32;20138;-57
2023/12/03 19:51:27;;;;;;;19.27;9.75;;;0.40;99.90;;;;;;7348288;32;20107;-55
2023/12/03 19:55:28;;;;;;;19.12;10.57;;;0.60;99.90;;;;;;7346469;32;20110;-57
2023/12/03 19:59:31;;;;;;;15.25;8.50;;;0.60;99.90;;;;;;7345072;32;20277;-56
2023/12/03 20:03:32;;;;;;;18.37;8.90;;;0.50;99.90;;;;;;7338637;32;20224;-55
2023/12/03 20:07:39;;;;;;;17.87;9.32;;;0.30;99.90;;;;;;7346466;32;20095;-56
2023/12/03 20:11:41;;;;;;;17.50;9.80;;;0.20;99.90;;;;;;7343232;32;20095;-58
2023/12/03 20:15:43;;;;;;;19.40;8.77;;;0.20;99.90;;;;;;7344374;32;20170;-56
2023/12/03 20:19:45;;;;;;;16.98;9.30;;;0.30;99.90;;;;;;7347784;32;20099;-55
2023/12/03 20:23:48;;;;;;;18.80;9.95;;;0.20;99.90;;;;;;7349878;32;20103;-55
2023/12/03 20:27:50;;;;;;;18.65;10.40;;;0.20;99.90;;;;;;7354507;32;20118;-55
2023/12/03 20:31:53;;;;;;;22.40;10.73;;;0.10;99.90;;;;;;7351330;32;20113;-56
2023/12/03 20:35:55;;;;;;;19.55;10.15;;;0.10;99.90;;;;;;7351918;32;20214;-56
2023/12/03 20:39:56;;;;;;;23.10;10.60;;;0.20;99.90;;;;;;7344813;32;20167;-55
2023/12/03 20:43:58;;;;;;;20.50;9.98;;;0.00;99.90;;;;;;7352536;32;20103;-57
2023/12/03 20:48:00;;;;;;;22.80;11.07;;;0.00;99.90;;;;;;7344859;32;20278;-57
2023/12/03 20:52:02;;;;;;;23.55;12.00;;;0.00;99.90;;;;;;7347063;32;20111;-55